createdAt,value
2022-08-17T00:00:56.873Z,23.71
2022-08-17T00:01:56.950Z,23.71
2022-08-17T00:02:56.881Z,23.71
2022-08-17T00:03:56.842Z,23.73
2022-08-17T00:04:56.852Z,23.71
2022-08-17T00:05:56.863Z,23.69
2022-08-17T00:06:56.819Z,23.69
2022-08-17T00:07:56.826Z,23.71
2022-08-17T00:08:56.797Z,23.71
2022-08-17T00:09:56.787Z,23.69
2022-08-17T00:10:56.813Z,23.66
2022-08-17T00:12:40.764Z,23.65
2022-08-17T00:12:57.773Z,23.66
2022-08-17T00:13:56.738Z,23.63
2022-08-17T00:14:56.719Z,23.65
2022-08-17T00:15:56.717Z,23.63
2022-08-17T00:16:57.714Z,23.62
2022-08-17T00:17:56.689Z,23.62
2022-08-17T00:19:07.074Z,23.61
2022-08-17T00:19:57.671Z,23.59
2022-08-17T00:20:56.687Z,23.59
2022-08-17T00:22:32.436Z,23.56
2022-08-17T00:22:57.653Z,23.55
2022-08-17T00:23:56.652Z,23.54
2022-08-17T00:24:56.611Z,23.51
2022-08-17T00:25:56.613Z,23.51
2022-08-17T00:26:56.603Z,23.50
2022-08-17T00:27:56.581Z,23.48
2022-08-17T00:28:56.614Z,23.46
2022-08-17T00:29:56.554Z,23.44
2022-08-17T00:30:56.581Z,23.44
2022-08-17T00:31:56.537Z,23.44
2022-08-17T00:33:15.946Z,23.43
2022-08-17T00:33:57.514Z,23.40
2022-08-17T00:34:56.553Z,23.40
2022-08-17T00:35:56.488Z,23.39
2022-08-17T00:36:56.548Z,23.37
2022-08-17T00:37:56.477Z,23.36
2022-08-17T00:38:56.512Z,23.34
2022-08-17T00:39:56.540Z,23.34
2022-08-17T00:40:59.227Z,23.32
2022-08-17T00:41:56.432Z,23.32
2022-08-17T00:42:56.446Z,23.32
2022-08-17T00:43:56.409Z,23.31
2022-08-17T00:44:56.400Z,23.31
2022-08-17T00:45:56.429Z,23.28
2022-08-17T00:46:56.387Z,23.27
2022-08-17T00:47:56.381Z,23.28
2022-08-17T00:48:56.350Z,23.25
2022-08-17T00:49:56.340Z,23.27
2022-08-17T00:50:56.351Z,23.24
2022-08-17T00:51:56.364Z,23.24
2022-08-17T00:52:56.363Z,23.21
2022-08-17T00:53:56.336Z,23.21
2022-08-17T00:54:56.284Z,23.21
2022-08-17T00:55:56.285Z,23.20
2022-08-17T00:56:56.304Z,23.18
2022-08-17T00:57:56.256Z,23.18
2022-08-17T00:58:56.235Z,23.17
2022-08-17T01:00:03.351Z,23.13
2022-08-17T01:00:57.299Z,23.12
2022-08-17T01:01:56.205Z,23.12
2022-08-17T01:02:56.349Z,23.09
2022-08-17T01:03:59.661Z,23.09
2022-08-17T01:04:56.171Z,23.06
2022-08-17T01:05:56.162Z,23.05
2022-08-17T01:06:56.158Z,23.02
2022-08-17T01:07:56.240Z,23.03
2022-08-17T01:08:57.287Z,23.02
2022-08-17T01:09:56.119Z,22.99
2022-08-17T01:10:58.523Z,22.98
2022-08-17T01:11:57.107Z,22.96
2022-08-17T01:12:56.095Z,22.94
2022-08-17T01:13:56.121Z,22.93
2022-08-17T01:14:56.066Z,22.91
2022-08-17T01:15:56.087Z,22.90
2022-08-17T01:16:56.080Z,22.88
2022-08-17T01:17:56.043Z,22.88
2022-08-17T01:18:56.022Z,22.85
2022-08-17T01:19:56.021Z,22.85
2022-08-17T01:20:56.008Z,22.85
2022-08-17T01:21:56.001Z,22.83
2022-08-17T01:22:55.963Z,22.83
2022-08-17T01:23:55.963Z,22.83
2022-08-17T01:24:55.999Z,22.81
2022-08-17T01:25:55.946Z,22.80
2022-08-17T01:26:56.672Z,22.76
2022-08-17T01:27:55.936Z,22.75
2022-08-17T01:28:56.065Z,22.75
2022-08-17T01:29:55.901Z,22.73
2022-08-17T01:30:59.004Z,22.75
2022-08-17T01:31:55.867Z,22.73
2022-08-17T01:32:55.880Z,22.72
2022-08-17T01:33:55.878Z,22.72
2022-08-17T01:34:55.875Z,22.73
2022-08-17T01:35:55.846Z,22.72
2022-08-17T01:36:55.852Z,22.69
2022-08-17T01:37:55.851Z,22.68
2022-08-17T01:38:55.795Z,22.68
2022-08-17T01:39:55.872Z,22.68
2022-08-17T01:40:57.688Z,22.65
2022-08-17T01:41:55.778Z,22.65
2022-08-17T01:42:55.799Z,22.63
2022-08-17T01:43:55.753Z,22.63
2022-08-17T01:44:55.741Z,22.63
2022-08-17T01:46:03.529Z,22.62
2022-08-17T01:46:56.747Z,22.60
2022-08-17T01:47:55.742Z,22.60
2022-08-17T01:48:56.683Z,22.60
2022-08-17T01:49:55.690Z,22.59
2022-08-17T01:50:55.692Z,22.59
2022-08-17T01:51:55.654Z,22.57
2022-08-17T01:52:55.644Z,22.57
2022-08-17T01:53:55.650Z,22.55
2022-08-17T01:54:55.664Z,22.54
2022-08-17T01:55:55.627Z,22.54
2022-08-17T01:56:55.627Z,22.54
2022-08-17T01:57:55.595Z,22.53
2022-08-17T01:58:55.577Z,22.51
2022-08-17T01:59:55.620Z,22.50
2022-08-17T02:01:00.732Z,22.47
2022-08-17T02:01:56.602Z,22.47
2022-08-17T02:02:55.548Z,22.44
2022-08-17T02:03:59.633Z,22.45
2022-08-17T02:04:56.563Z,22.44
2022-08-17T02:05:55.525Z,22.43
2022-08-17T02:06:55.531Z,22.43
2022-08-17T02:07:59.393Z,22.41
2022-08-17T02:09:03.200Z,22.39
2022-08-17T02:09:56.468Z,22.38
2022-08-17T02:10:55.461Z,22.38
2022-08-17T02:11:56.351Z,22.35
2022-08-17T02:12:55.423Z,22.33
2022-08-17T02:14:02.544Z,22.30
2022-08-17T02:14:56.418Z,22.30
2022-08-17T02:15:55.392Z,22.28
2022-08-17T02:16:55.420Z,22.29
2022-08-17T02:17:55.382Z,22.25
2022-08-17T02:18:55.372Z,22.25
2022-08-17T02:19:55.357Z,22.23
2022-08-17T02:20:55.334Z,22.20
2022-08-17T02:21:55.361Z,22.18
2022-08-17T02:22:55.317Z,22.18
2022-08-17T02:23:55.316Z,22.15
2022-08-17T02:24:59.933Z,22.17
2022-08-17T02:25:56.980Z,22.13
2022-08-17T02:26:55.279Z,22.11
2022-08-17T02:27:55.310Z,22.10
2022-08-17T02:28:55.260Z,22.08
2022-08-17T02:29:55.257Z,22.02
2022-08-17T02:31:01.279Z,21.98
2022-08-17T02:31:56.228Z,21.93
2022-08-17T02:32:55.216Z,21.93
2022-08-17T02:34:00.209Z,21.89
2022-08-17T02:34:56.205Z,21.85
2022-08-17T02:35:55.178Z,21.80
2022-08-17T02:36:55.159Z,21.79
2022-08-17T02:37:55.472Z,21.77
2022-08-17T02:38:55.201Z,21.75
2022-08-17T02:39:55.165Z,21.70
2022-08-17T02:40:55.121Z,21.69
2022-08-17T02:41:55.120Z,21.67
2022-08-17T02:42:55.110Z,21.62
2022-08-17T02:43:55.099Z,21.60
2022-08-17T02:44:55.102Z,21.55
2022-08-17T02:45:55.081Z,21.55
2022-08-17T02:46:55.051Z,21.54
2022-08-17T02:47:55.068Z,21.51
2022-08-17T02:48:55.064Z,21.48
2022-08-17T02:49:55.844Z,21.42
2022-08-17T02:50:55.022Z,21.37
2022-08-17T02:51:55.012Z,21.33
2022-08-17T02:53:01.631Z,21.30
2022-08-17T02:54:40.152Z,21.25
2022-08-17T02:54:56.010Z,21.22
2022-08-17T02:55:54.970Z,21.18
2022-08-17T02:56:55.917Z,21.15
2022-08-17T02:57:54.945Z,21.14
2022-08-17T02:58:54.925Z,21.12
2022-08-17T02:59:54.915Z,21.14
2022-08-17T03:00:54.945Z,21.14
2022-08-17T03:01:54.954Z,21.14
2022-08-17T03:02:54.902Z,21.12
2022-08-17T03:03:55.818Z,21.11
2022-08-17T03:04:54.881Z,21.09
2022-08-17T03:05:54.893Z,21.07
2022-08-17T03:06:54.834Z,21.05
2022-08-17T03:07:54.821Z,21.00
2022-08-17T03:08:54.812Z,20.97
2022-08-17T03:09:54.801Z,20.96
2022-08-17T03:10:54.811Z,20.93
2022-08-17T03:11:56.060Z,20.90
2022-08-17T03:12:54.773Z,20.88
2022-08-17T03:13:54.762Z,20.85
2022-08-17T03:14:54.760Z,20.84
2022-08-17T03:15:54.749Z,20.84
2022-08-17T03:16:54.765Z,20.81
2022-08-17T03:17:54.725Z,20.80
2022-08-17T03:18:54.705Z,20.75
2022-08-17T03:19:54.694Z,20.72
2022-08-17T03:20:54.707Z,20.69
2022-08-17T03:21:55.359Z,20.67
2022-08-17T03:22:55.188Z,20.66
2022-08-17T03:23:55.674Z,20.65
2022-08-17T03:24:54.657Z,20.63
2022-08-17T03:25:54.679Z,20.63
2022-08-17T03:26:54.623Z,20.65
2022-08-17T03:27:54.633Z,20.66
2022-08-17T03:28:54.593Z,20.67
2022-08-17T03:29:54.587Z,20.67
2022-08-17T03:30:54.595Z,20.67
2022-08-17T03:31:54.587Z,20.66
2022-08-17T03:32:54.544Z,20.66
2022-08-17T03:33:54.662Z,20.65
2022-08-17T03:34:54.529Z,20.65
2022-08-17T03:35:54.524Z,20.63
2022-08-17T03:36:54.510Z,20.62
2022-08-17T03:37:59.995Z,20.63
2022-08-17T03:38:55.500Z,20.65
2022-08-17T03:39:54.509Z,20.67
2022-08-17T03:40:56.753Z,20.69
2022-08-17T03:41:55.463Z,20.70
2022-08-17T03:42:54.442Z,20.72
2022-08-17T03:43:54.431Z,20.69
2022-08-17T03:44:54.452Z,20.66
2022-08-17T03:45:54.454Z,20.66
2022-08-17T03:46:54.422Z,20.63
2022-08-17T03:47:54.423Z,20.60
2022-08-17T03:48:54.413Z,20.59
2022-08-17T03:49:54.375Z,20.58
2022-08-17T03:50:54.381Z,20.58
2022-08-17T03:51:54.396Z,20.58
2022-08-17T03:52:54.439Z,20.56
2022-08-17T03:53:54.354Z,20.56
2022-08-17T03:54:54.347Z,20.55
2022-08-17T03:55:54.297Z,20.52
2022-08-17T03:56:54.279Z,20.51
2022-08-17T03:57:54.329Z,20.50
2022-08-17T03:58:54.266Z,20.48
2022-08-17T03:59:55.226Z,20.48
2022-08-17T04:00:54.270Z,20.47
2022-08-17T04:01:54.317Z,20.47
2022-08-17T04:02:54.221Z,20.43
2022-08-17T04:03:54.210Z,20.40
2022-08-17T04:04:54.256Z,20.40
2022-08-17T04:05:54.313Z,20.39
2022-08-17T04:06:54.180Z,20.37
2022-08-17T04:07:54.179Z,20.37
2022-08-17T04:08:54.176Z,20.34
2022-08-17T04:09:54.147Z,20.31
2022-08-17T04:10:54.130Z,20.31
2022-08-17T04:11:54.142Z,20.31
2022-08-17T04:12:54.112Z,20.32
2022-08-17T04:13:54.119Z,20.32
2022-08-17T04:14:55.165Z,20.32
2022-08-17T04:15:54.092Z,20.32
2022-08-17T04:16:54.103Z,20.32
2022-08-17T04:17:54.060Z,20.34
2022-08-17T04:18:54.065Z,20.36
2022-08-17T04:19:54.062Z,20.41
2022-08-17T04:20:54.021Z,20.47
2022-08-17T04:21:54.027Z,20.52
2022-08-17T04:22:54.024Z,20.58
2022-08-17T04:23:53.992Z,20.62
2022-08-17T04:24:54.032Z,20.62
2022-08-17T04:25:53.984Z,20.63
2022-08-17T04:26:54.776Z,20.63
2022-08-17T04:27:53.968Z,20.66
2022-08-17T04:28:53.953Z,20.67
2022-08-17T04:29:55.494Z,20.70
2022-08-17T04:30:53.950Z,20.72
2022-08-17T04:31:53.902Z,20.74
2022-08-17T04:33:05.406Z,20.78
2022-08-17T04:33:54.893Z,20.80
2022-08-17T04:34:53.867Z,20.82
2022-08-17T04:35:53.910Z,20.82
2022-08-17T04:36:53.924Z,20.84
2022-08-17T04:37:53.846Z,20.87
2022-08-17T04:38:53.828Z,20.88
2022-08-17T04:39:53.846Z,20.88
2022-08-17T04:40:53.802Z,20.92
2022-08-17T04:41:53.822Z,20.93
2022-08-17T04:42:53.839Z,20.96
2022-08-17T04:43:54.775Z,20.97
2022-08-17T04:44:53.874Z,20.95
2022-08-17T04:45:56.151Z,20.93
2022-08-17T04:46:53.736Z,20.90
2022-08-17T04:47:53.757Z,20.92
2022-08-17T04:48:53.716Z,20.88
2022-08-17T04:49:53.715Z,20.87
2022-08-17T04:50:53.687Z,20.85
2022-08-17T04:51:56.251Z,20.84
2022-08-17T04:52:55.030Z,20.82
2022-08-17T04:53:54.161Z,20.85
2022-08-17T04:54:53.646Z,20.87
2022-08-17T04:55:53.636Z,20.90
2022-08-17T04:56:53.648Z,20.90
2022-08-17T04:57:53.618Z,20.88
2022-08-17T04:58:53.633Z,20.88
2022-08-17T04:59:53.598Z,20.88
2022-08-17T05:00:53.624Z,20.87
2022-08-17T05:01:53.611Z,20.88
2022-08-17T05:02:53.766Z,20.93
2022-08-17T05:03:53.577Z,20.97
2022-08-17T05:04:53.576Z,20.99
2022-08-17T05:05:53.639Z,20.97
2022-08-17T05:06:53.527Z,20.97
2022-08-17T05:07:53.523Z,21.00
2022-08-17T05:08:53.509Z,21.00
2022-08-17T05:09:53.499Z,21.02
2022-08-17T05:10:53.493Z,21.03
2022-08-17T05:11:53.473Z,21.05
2022-08-17T05:12:53.499Z,21.02
2022-08-17T05:13:53.447Z,21.02
2022-08-17T05:14:53.493Z,20.99
2022-08-17T05:15:53.460Z,20.99
2022-08-17T05:16:53.406Z,20.96
2022-08-17T05:17:53.395Z,20.99
2022-08-17T05:18:53.385Z,21.02
2022-08-17T05:19:53.375Z,21.06
2022-08-17T05:20:53.475Z,21.11
2022-08-17T05:21:53.365Z,21.17
2022-08-17T05:22:53.349Z,21.18
2022-08-17T05:23:54.993Z,21.21
2022-08-17T05:24:55.476Z,21.25
2022-08-17T05:25:53.298Z,21.27
2022-08-17T05:26:53.329Z,21.27
2022-08-17T05:27:53.301Z,21.27
2022-08-17T05:28:53.278Z,21.25
2022-08-17T05:29:53.286Z,21.25
2022-08-17T05:30:53.279Z,21.25
2022-08-17T05:31:53.245Z,21.25
2022-08-17T05:32:53.452Z,21.24
2022-08-17T05:33:53.223Z,21.25
2022-08-17T05:34:53.220Z,21.25
2022-08-17T05:35:53.202Z,21.29
2022-08-17T05:36:53.192Z,21.30
2022-08-17T05:37:53.223Z,21.30
2022-08-17T05:38:53.194Z,21.32
2022-08-17T05:39:53.257Z,21.32
2022-08-17T05:40:53.159Z,21.33
2022-08-17T05:41:53.154Z,21.36
2022-08-17T05:42:53.293Z,21.37
2022-08-17T05:43:56.396Z,21.39
2022-08-17T05:44:53.113Z,21.42
2022-08-17T05:45:55.229Z,21.40
2022-08-17T05:46:53.103Z,21.42
2022-08-17T05:47:53.055Z,21.40
2022-08-17T05:48:53.099Z,21.39
2022-08-17T05:49:53.886Z,21.39
2022-08-17T05:50:53.049Z,21.37
2022-08-17T05:51:53.039Z,21.37
2022-08-17T05:52:53.048Z,21.39
2022-08-17T05:53:53.012Z,21.39
2022-08-17T05:54:52.997Z,21.39
2022-08-17T05:55:52.984Z,21.42
2022-08-17T05:56:52.993Z,21.46
2022-08-17T05:57:53.511Z,21.50
2022-08-17T05:58:52.962Z,21.52
2022-08-17T05:59:52.953Z,21.57
2022-08-17T06:00:53.018Z,21.60
2022-08-17T06:01:52.928Z,21.62
2022-08-17T06:02:53.211Z,21.64
2022-08-17T06:03:52.891Z,21.66
2022-08-17T06:04:52.893Z,21.66
2022-08-17T06:05:52.881Z,21.69
2022-08-17T06:06:53.564Z,21.67
2022-08-17T06:07:52.862Z,21.69
2022-08-17T06:08:52.871Z,21.69
2022-08-17T06:09:52.831Z,21.72
2022-08-17T06:10:52.897Z,21.75
2022-08-17T06:11:53.464Z,21.77
2022-08-17T06:12:52.797Z,21.79
2022-08-17T06:13:52.790Z,21.85
2022-08-17T06:14:52.844Z,21.89
2022-08-17T06:15:52.783Z,21.92
2022-08-17T06:16:52.766Z,21.95
2022-08-17T06:17:52.748Z,21.98
2022-08-17T06:18:52.725Z,22.02
2022-08-17T06:19:52.769Z,22.07
2022-08-17T06:20:52.747Z,22.08
2022-08-17T06:21:52.741Z,22.13
2022-08-17T06:22:52.920Z,22.15
2022-08-17T06:23:52.721Z,22.18
2022-08-17T06:24:52.722Z,22.23
2022-08-17T06:25:53.503Z,22.28
2022-08-17T06:26:52.776Z,22.30
2022-08-17T06:27:53.626Z,22.35
2022-08-17T06:28:52.647Z,22.39
2022-08-17T06:29:52.635Z,22.44
2022-08-17T06:30:59.973Z,22.48
2022-08-17T06:31:53.645Z,22.51
2022-08-17T06:32:52.849Z,22.55
2022-08-17T06:33:52.615Z,22.59
2022-08-17T06:34:52.565Z,22.65
2022-08-17T06:35:52.549Z,22.68
2022-08-17T06:36:52.558Z,22.73
2022-08-17T06:37:52.574Z,22.78
2022-08-17T06:38:52.562Z,22.85
2022-08-17T06:39:52.569Z,22.90
2022-08-17T06:40:52.518Z,22.94
2022-08-17T06:41:52.485Z,22.98
2022-08-17T06:43:02.358Z,23.03
2022-08-17T06:43:53.461Z,23.08
2022-08-17T06:44:52.468Z,23.10
2022-08-17T06:45:52.444Z,23.15
2022-08-17T06:46:52.439Z,23.20
2022-08-17T06:47:52.427Z,23.24
2022-08-17T06:48:52.457Z,23.28
2022-08-17T06:49:55.411Z,23.32
2022-08-17T06:50:52.396Z,23.37
2022-08-17T06:51:52.381Z,23.40
2022-08-17T06:52:52.377Z,23.44
2022-08-17T06:53:52.349Z,23.48
2022-08-17T06:54:52.376Z,23.51
2022-08-17T06:55:52.394Z,23.55
2022-08-17T06:56:54.358Z,23.59
2022-08-17T06:57:52.311Z,23.63
2022-08-17T06:58:52.287Z,23.68
2022-08-17T06:59:55.533Z,23.73
2022-08-17T07:00:56.612Z,23.77
2022-08-17T07:01:53.304Z,23.78
2022-08-17T07:02:53.545Z,23.83
2022-08-17T07:03:52.234Z,23.84
2022-08-17T07:04:52.362Z,23.84
2022-08-17T07:05:52.234Z,23.87
2022-08-17T07:06:52.216Z,23.91
2022-08-17T07:07:52.194Z,23.92
2022-08-17T07:08:52.191Z,23.93
2022-08-17T07:09:52.184Z,23.96
2022-08-17T07:10:52.156Z,23.99
2022-08-17T07:11:52.177Z,23.98
2022-08-17T07:12:52.237Z,23.96
2022-08-17T07:13:52.126Z,23.93
2022-08-17T07:14:52.117Z,23.92
2022-08-17T07:15:56.516Z,23.93
2022-08-17T07:16:53.096Z,23.93
2022-08-17T07:17:52.123Z,23.96
2022-08-17T07:18:52.087Z,23.99
2022-08-17T07:19:52.057Z,24.01
2022-08-17T07:20:52.051Z,24.05
2022-08-17T07:21:52.061Z,24.06
2022-08-17T07:22:59.912Z,24.06
2022-08-17T07:23:53.069Z,24.08
2022-08-17T07:24:52.016Z,24.11
2022-08-17T07:25:52.012Z,24.13
2022-08-17T07:26:52.191Z,24.16
2022-08-17T07:27:52.088Z,24.17
2022-08-17T07:28:51.971Z,24.23
2022-08-17T07:29:51.964Z,24.24
2022-08-17T07:30:51.957Z,24.30
2022-08-17T07:31:51.971Z,24.32
2022-08-17T07:32:51.947Z,24.33
2022-08-17T07:33:51.926Z,24.29
2022-08-17T07:34:51.902Z,24.28
2022-08-17T07:35:51.885Z,24.24
2022-08-17T07:36:51.875Z,24.21
2022-08-17T07:37:52.071Z,24.18
2022-08-17T07:38:51.847Z,24.18
2022-08-17T07:40:15.456Z,24.18
2022-08-17T07:40:52.827Z,24.17
2022-08-17T07:41:53.232Z,24.16
2022-08-17T07:42:52.807Z,24.14
2022-08-17T07:43:51.797Z,24.14
2022-08-17T07:44:51.818Z,24.11
2022-08-17T07:45:51.815Z,24.11
2022-08-17T07:46:51.808Z,24.11
2022-08-17T07:47:51.901Z,24.11
2022-08-17T07:48:52.778Z,24.11
2022-08-17T07:49:51.754Z,24.11
2022-08-17T07:50:51.722Z,24.10
2022-08-17T07:51:51.718Z,24.10
2022-08-17T07:52:52.539Z,24.10
2022-08-17T07:53:51.681Z,24.05
2022-08-17T07:54:51.697Z,24.03
2022-08-17T07:55:51.693Z,24.02
2022-08-17T07:56:51.662Z,24.02
2022-08-17T07:57:51.886Z,24.03
2022-08-17T07:58:51.634Z,24.08
2022-08-17T07:59:51.696Z,24.08
2022-08-17T08:00:51.626Z,24.13
2022-08-17T08:01:51.769Z,24.14
2022-08-17T08:02:52.596Z,24.16
2022-08-17T08:03:52.727Z,24.20
2022-08-17T08:05:08.653Z,24.23
2022-08-17T08:05:52.593Z,24.26
2022-08-17T08:06:51.561Z,24.26
2022-08-17T08:07:51.772Z,24.30
2022-08-17T08:08:51.540Z,24.32
2022-08-17T08:09:51.554Z,24.33
2022-08-17T08:10:51.514Z,24.36
2022-08-17T08:11:51.495Z,24.38
2022-08-17T08:12:53.954Z,24.38
2022-08-17T08:13:51.481Z,24.39
2022-08-17T08:14:51.498Z,24.39
2022-08-17T08:15:52.219Z,24.39
2022-08-17T08:16:51.474Z,24.38
2022-08-17T08:17:51.659Z,24.38
2022-08-17T08:18:54.750Z,24.39
2022-08-17T08:19:51.426Z,24.39
2022-08-17T08:20:53.863Z,24.39
2022-08-17T08:21:51.416Z,24.40
2022-08-17T08:22:51.378Z,24.40
2022-08-17T08:23:51.362Z,24.40
2022-08-17T08:24:51.384Z,24.42
2022-08-17T08:25:53.631Z,24.42
2022-08-17T08:26:51.346Z,24.43
2022-08-17T08:27:51.522Z,24.47
2022-08-17T08:28:51.304Z,24.48
2022-08-17T08:29:51.314Z,24.51
2022-08-17T08:30:51.316Z,24.54
2022-08-17T08:31:51.317Z,24.57
2022-08-17T08:32:51.308Z,24.60
2022-08-17T08:33:51.266Z,24.66
2022-08-17T08:35:02.246Z,24.69
2022-08-17T08:35:52.259Z,24.73
2022-08-17T08:37:12.659Z,24.76
2022-08-17T08:37:52.409Z,24.80
2022-08-17T08:38:51.203Z,24.85
2022-08-17T08:39:51.235Z,24.91
2022-08-17T08:40:51.209Z,24.96
2022-08-17T08:41:51.168Z,24.99
2022-08-17T08:42:51.160Z,25.04
2022-08-17T08:43:53.190Z,25.03
2022-08-17T08:45:00.323Z,25.04
2022-08-17T08:45:52.135Z,25.04
2022-08-17T08:46:51.115Z,25.01
2022-08-17T08:47:51.175Z,25.03
2022-08-17T08:48:56.447Z,25.03
2022-08-17T08:50:07.455Z,25.04
2022-08-17T08:50:52.073Z,25.04
2022-08-17T08:51:51.721Z,25.04
2022-08-17T08:52:51.071Z,25.06
2022-08-17T08:53:51.045Z,25.07
2022-08-17T08:54:51.055Z,25.08
2022-08-17T08:55:51.007Z,25.08
2022-08-17T08:57:19.812Z,25.08
2022-08-17T08:57:52.085Z,25.11
2022-08-17T08:58:51.051Z,25.13
2022-08-17T08:59:57.707Z,25.10
2022-08-17T09:00:51.993Z,25.08
2022-08-17T09:01:51.030Z,25.06
2022-08-17T09:02:50.932Z,25.03
2022-08-17T09:03:53.297Z,25.01
2022-08-17T09:05:13.429Z,25.01
2022-08-17T09:05:51.923Z,24.98
2022-08-17T09:06:50.919Z,24.96
2022-08-17T09:07:51.035Z,24.92
2022-08-17T09:08:51.906Z,24.91
2022-08-17T09:09:53.358Z,24.91
2022-08-17T09:10:51.864Z,24.88
2022-08-17T09:12:02.603Z,24.86
2022-08-17T09:12:51.840Z,24.86
2022-08-17T09:13:54.375Z,24.85
2022-08-17T09:14:50.821Z,24.86
2022-08-17T09:15:50.812Z,24.86
2022-08-17T09:16:50.812Z,24.85
2022-08-17T09:18:03.484Z,24.81
2022-08-17T09:19:03.059Z,24.80
2022-08-17T09:19:51.837Z,24.76
2022-08-17T09:20:50.774Z,24.73
2022-08-17T09:21:50.743Z,24.69
2022-08-17T09:22:50.726Z,24.63
2022-08-17T09:23:50.725Z,24.61
2022-08-17T09:24:51.651Z,24.61
2022-08-17T09:25:50.719Z,24.60
2022-08-17T09:26:50.670Z,24.57
2022-08-17T09:27:50.825Z,24.58
2022-08-17T09:28:50.669Z,24.55
2022-08-17T09:29:50.631Z,24.54
2022-08-17T09:30:50.628Z,24.54
2022-08-17T09:31:50.655Z,24.53
2022-08-17T09:32:50.600Z,24.43
2022-08-17T09:33:50.600Z,24.40
2022-08-17T09:34:50.581Z,24.39
2022-08-17T09:35:50.622Z,24.39
2022-08-17T09:36:50.648Z,24.39
2022-08-17T09:37:50.718Z,24.39
2022-08-17T09:38:50.551Z,24.39
2022-08-17T09:39:50.626Z,24.40
2022-08-17T09:40:50.544Z,24.42
2022-08-17T09:41:50.538Z,24.43
2022-08-17T09:42:50.599Z,24.42
2022-08-17T09:43:50.549Z,24.40
2022-08-17T09:44:50.490Z,24.38
2022-08-17T09:45:50.495Z,24.32
2022-08-17T09:46:50.457Z,24.29
2022-08-17T09:47:50.617Z,24.28
2022-08-17T09:48:50.461Z,24.26
2022-08-17T09:49:50.426Z,24.24
2022-08-17T09:51:03.266Z,24.20
2022-08-17T09:51:51.408Z,24.18
2022-08-17T09:52:50.449Z,24.17
2022-08-17T09:53:50.393Z,24.13
2022-08-17T09:54:50.369Z,24.08
2022-08-17T09:55:50.373Z,24.06
2022-08-17T09:57:11.504Z,24.06
2022-08-17T09:57:51.500Z,24.06
2022-08-17T09:58:50.359Z,24.08
2022-08-17T09:59:50.351Z,24.10
2022-08-17T10:00:50.403Z,24.08
2022-08-17T10:01:50.310Z,24.06
2022-08-17T10:02:50.283Z,24.06
2022-08-17T10:03:50.305Z,24.05
2022-08-17T10:04:50.295Z,24.02
2022-08-17T10:05:50.296Z,24.03
2022-08-17T10:06:51.246Z,24.03
2022-08-17T10:07:50.448Z,24.02
2022-08-17T10:08:50.212Z,24.03
2022-08-17T10:09:50.294Z,24.01
2022-08-17T10:10:56.204Z,23.99
2022-08-17T10:11:51.221Z,23.96
2022-08-17T10:12:50.185Z,23.92
2022-08-17T10:13:52.886Z,23.87
2022-08-17T10:14:53.460Z,23.84
2022-08-17T10:15:51.152Z,23.83
2022-08-17T10:16:50.126Z,23.81
2022-08-17T10:17:50.304Z,23.81
2022-08-17T10:18:50.123Z,23.80
2022-08-17T10:19:50.107Z,23.78
2022-08-17T10:20:50.085Z,23.76
2022-08-17T10:21:50.092Z,23.74
2022-08-17T10:22:54.835Z,23.69
2022-08-17T10:23:50.058Z,23.68
2022-08-17T10:25:21.010Z,23.66
2022-08-17T10:25:55.400Z,23.66
2022-08-17T10:26:56.898Z,23.66
2022-08-17T10:27:51.190Z,23.63
2022-08-17T10:28:50.010Z,23.61
2022-08-17T10:29:50.027Z,23.62
2022-08-17T10:30:49.966Z,23.61
2022-08-17T10:31:50.000Z,23.58
2022-08-17T10:32:49.976Z,23.56
2022-08-17T10:33:49.941Z,23.54
2022-08-17T10:34:49.974Z,23.54
2022-08-17T10:35:49.920Z,23.51
2022-08-17T10:36:50.868Z,23.50
2022-08-17T10:37:51.099Z,23.47
2022-08-17T10:38:49.905Z,23.47
2022-08-17T10:39:52.752Z,23.48
2022-08-17T10:40:49.887Z,23.50
2022-08-17T10:41:49.853Z,23.51
2022-08-17T10:42:49.831Z,23.51
2022-08-17T10:43:57.928Z,23.50
2022-08-17T10:44:50.846Z,23.50
2022-08-17T10:45:49.825Z,23.50
2022-08-17T10:46:50.838Z,23.50
2022-08-17T10:47:55.374Z,23.50
2022-08-17T10:48:50.827Z,23.51
2022-08-17T10:49:49.806Z,23.50
2022-08-17T10:50:49.806Z,23.50
2022-08-17T10:51:49.757Z,23.51
2022-08-17T10:52:49.732Z,23.54
2022-08-17T10:53:49.717Z,23.54
2022-08-17T10:54:49.703Z,23.51
2022-08-17T10:55:49.708Z,23.51
2022-08-17T10:56:49.739Z,23.50
2022-08-17T10:57:49.883Z,23.44
2022-08-17T10:58:49.667Z,23.37
2022-08-17T10:59:49.653Z,23.28
2022-08-17T11:00:49.675Z,23.23
2022-08-17T11:01:49.644Z,23.18
2022-08-17T11:02:50.157Z,23.13
2022-08-17T11:03:49.614Z,23.12
2022-08-17T11:04:49.653Z,23.10
2022-08-17T11:05:49.593Z,23.10
2022-08-17T11:06:49.593Z,23.12
2022-08-17T11:07:49.595Z,23.12
2022-08-17T11:08:49.571Z,23.12
2022-08-17T11:09:49.562Z,23.12
2022-08-17T11:10:52.147Z,23.12
2022-08-17T11:11:49.548Z,23.13
2022-08-17T11:12:49.580Z,23.15
2022-08-17T11:13:49.501Z,23.15
2022-08-17T11:14:49.494Z,23.17
2022-08-17T11:15:49.503Z,23.15
2022-08-17T11:16:49.462Z,23.15
2022-08-17T11:17:49.476Z,23.13
2022-08-17T11:18:49.438Z,23.13
2022-08-17T11:19:49.444Z,23.12
2022-08-17T11:20:49.448Z,23.09
2022-08-17T11:21:49.426Z,23.06
2022-08-17T11:22:49.548Z,23.08
2022-08-17T11:23:49.445Z,23.05
2022-08-17T11:24:49.385Z,23.03
2022-08-17T11:25:49.370Z,23.00
2022-08-17T11:26:49.339Z,22.99
2022-08-17T11:27:49.381Z,22.96
2022-08-17T11:28:52.595Z,22.93
2022-08-17T11:29:52.966Z,22.90
2022-08-17T11:30:50.310Z,22.88
2022-08-17T11:31:49.364Z,22.87
2022-08-17T11:32:52.925Z,22.87
2022-08-17T11:33:50.321Z,22.87
2022-08-17T11:34:49.284Z,22.85
2022-08-17T11:35:49.268Z,22.85
2022-08-17T11:36:49.244Z,22.84
2022-08-17T11:37:49.234Z,22.83
2022-08-17T11:38:49.271Z,22.83
2022-08-17T11:39:49.339Z,22.83
2022-08-17T11:40:49.227Z,22.88
2022-08-17T11:41:49.186Z,22.91
2022-08-17T11:42:49.288Z,22.94
2022-08-17T11:43:49.166Z,23.00
2022-08-17T11:44:49.177Z,23.05
2022-08-17T11:45:49.176Z,23.10
2022-08-17T11:46:51.649Z,23.18
2022-08-17T11:48:09.055Z,23.25
2022-08-17T11:48:50.119Z,23.36
2022-08-17T11:49:49.108Z,23.41
2022-08-17T11:50:49.079Z,23.48
2022-08-17T11:51:49.096Z,23.54
2022-08-17T11:52:49.099Z,23.54
2022-08-17T11:53:49.079Z,23.47
2022-08-17T11:54:49.079Z,23.44
2022-08-17T11:55:49.045Z,23.46
2022-08-17T11:56:49.044Z,23.48
2022-08-17T11:57:49.070Z,23.50
2022-08-17T11:58:49.041Z,23.54
2022-08-17T11:59:49.014Z,23.55
2022-08-17T12:00:48.982Z,23.54
2022-08-17T12:01:48.978Z,23.50
2022-08-17T12:02:49.035Z,23.54
2022-08-17T12:03:54.024Z,23.59
2022-08-17T12:04:50.006Z,23.66
2022-08-17T12:05:48.955Z,23.73
2022-08-17T12:06:48.903Z,23.76
2022-08-17T12:07:49.191Z,23.81
2022-08-17T12:08:48.897Z,23.86
2022-08-17T12:09:49.897Z,23.88
2022-08-17T12:10:48.905Z,23.92
2022-08-17T12:11:56.276Z,23.93
2022-08-17T12:12:49.857Z,23.95
2022-08-17T12:13:48.842Z,23.96
2022-08-17T12:15:09.521Z,23.99
2022-08-17T12:15:49.865Z,23.99
2022-08-17T12:16:48.821Z,24.03
2022-08-17T12:17:48.810Z,24.08
2022-08-17T12:18:48.792Z,24.13
2022-08-17T12:19:48.822Z,24.17
2022-08-17T12:20:52.029Z,24.24
2022-08-17T12:21:49.805Z,24.33
2022-08-17T12:22:48.752Z,24.40
2022-08-17T12:23:48.741Z,24.42
2022-08-17T12:24:48.711Z,24.40
2022-08-17T12:25:48.754Z,24.42
2022-08-17T12:26:48.743Z,24.47
2022-08-17T12:28:06.430Z,24.50
2022-08-17T12:28:49.709Z,24.55
2022-08-17T12:29:48.663Z,24.53
2022-08-17T12:30:48.687Z,24.53
2022-08-17T12:31:48.654Z,24.50
2022-08-17T12:32:48.646Z,24.47
2022-08-17T12:33:48.633Z,24.42
2022-08-17T12:34:48.627Z,24.40
2022-08-17T12:35:48.604Z,24.30
2022-08-17T12:36:48.614Z,24.21
2022-08-17T12:37:48.692Z,24.17
2022-08-17T12:38:48.596Z,24.17
2022-08-17T12:39:48.589Z,24.18
2022-08-17T12:40:48.548Z,24.21
2022-08-17T12:41:50.351Z,24.28
2022-08-17T12:42:48.547Z,24.33
2022-08-17T12:43:48.528Z,24.39
2022-08-17T12:44:50.146Z,24.47
2022-08-17T12:45:48.491Z,24.51
2022-08-17T12:46:48.487Z,24.58
2022-08-17T12:47:48.478Z,24.63
2022-08-17T12:48:58.971Z,24.69
2022-08-17T12:49:49.470Z,24.76
2022-08-17T12:50:48.449Z,24.81
2022-08-17T12:51:48.437Z,24.92
2022-08-17T12:52:48.428Z,25.01